FIN46J LSGG-LDDU
Flight info
| Callsign | FIN46J |
|---|---|
| Flight time | 1h 24m |
| Altitude | 37000 |
| Route | MEDAM DCT NITAM DCT MOGBO DCT KODOK DCT TOP DCT LURUT DCT IBENI DCT SPL DCT SIPAL |
| Aircraft | A321/M-SDE3FGHIRWY/LB1 |
Departure
| Time | 2026-05-07 04:15 |
|---|---|
| Airport | Geneva International Airport (LSGG) |
Arrival
| Time | 2026-05-07 05:40 |
|---|---|
| Airport | Dubrovnik Ruđer Bošković Airport (LDDU) |
| Time | Latitude | Longitude | Altitude | Speed | Heading |
|---|---|---|---|---|---|
| 2026-05-07 04:15 | 46.22284 | 6.08686 | 2541 ft | 176 kts | 225° |
| 2026-05-07 04:15 | 46.21400 | 6.07392 | 3045 ft | 189 kts | 225° |
| 2026-05-07 04:15 | 46.20444 | 6.05983 | 3339 ft | 204 kts | 225° |
| 2026-05-07 04:15 | 46.19408 | 6.04447 | 3524 ft | 226 kts | 225° |
| 2026-05-07 04:16 | 46.18243 | 6.02721 | 3747 ft | 252 kts | 225° |
| 2026-05-07 04:16 | 46.16969 | 6.00951 | 4509 ft | 256 kts | 217° |
| 2026-05-07 04:16 | 46.15337 | 5.99904 | 5294 ft | 262 kts | 190° |
| 2026-05-07 04:16 | 46.13545 | 6.00065 | 6095 ft | 268 kts | 163° |
| 2026-05-07 04:17 | 46.11924 | 6.01426 | 6831 ft | 276 kts | 141° |
| 2026-05-07 04:17 | 46.10478 | 6.03271 | 7617 ft | 278 kts | 141° |
| 2026-05-07 04:17 | 46.08993 | 6.05083 | 8353 ft | 283 kts | 142° |
| 2026-05-07 04:17 | 46.07474 | 6.06920 | 9138 ft | 287 kts | 142° |
| 2026-05-07 04:18 | 46.05931 | 6.08779 | 9912 ft | 291 kts | 142° |
| 2026-05-07 04:18 | 46.04338 | 6.10691 | 10355 ft | 308 kts | 142° |
| 2026-05-07 04:18 | 46.02628 | 6.12735 | 10547 ft | 331 kts | 142° |
| 2026-05-07 04:18 | 46.00793 | 6.14922 | 10689 ft | 354 kts | 142° |
| 2026-05-07 04:19 | 45.98875 | 6.17208 | 10986 ft | 369 kts | 141° |
| 2026-05-07 04:19 | 45.96890 | 6.19581 | 11613 ft | 374 kts | 141° |
| 2026-05-07 04:19 | 45.94882 | 6.21986 | 12286 ft | 378 kts | 141° |
| 2026-05-07 04:19 | 45.92849 | 6.24418 | 12972 ft | 382 kts | 141° |
| 2026-05-07 04:20 | 45.90793 | 6.26868 | 13652 ft | 386 kts | 141° |
| 2026-05-07 04:20 | 45.88713 | 6.29336 | 14249 ft | 390 kts | 142° |
| 2026-05-07 04:20 | 45.86572 | 6.31754 | 14834 ft | 394 kts | 144° |
| 2026-05-07 04:21 | 45.82156 | 6.36418 | 16081 ft | 400 kts | 145° |
| 2026-05-07 04:21 | 45.79890 | 6.38761 | 16709 ft | 404 kts | 145° |
| 2026-05-07 04:21 | 45.77604 | 6.41138 | 17292 ft | 408 kts | 145° |
| 2026-05-07 04:21 | 45.75302 | 6.43551 | 17902 ft | 412 kts | 144° |
| 2026-05-07 04:22 | 45.72987 | 6.45992 | 18478 ft | 415 kts | 144° |
| 2026-05-07 04:22 | 45.70655 | 6.48459 | 18993 ft | 419 kts | 144° |
| 2026-05-07 04:22 | 45.68306 | 6.50945 | 19500 ft | 422 kts | 144° |
| 2026-05-07 04:22 | 45.65940 | 6.53444 | 20007 ft | 424 kts | 144° |
| 2026-05-07 04:23 | 45.63552 | 6.55960 | 20508 ft | 428 kts | 144° |
| 2026-05-07 04:23 | 45.61151 | 6.58489 | 21005 ft | 430 kts | 144° |
| 2026-05-07 04:23 | 45.58765 | 6.60999 | 21495 ft | 433 kts | 144° |
| 2026-05-07 04:23 | 45.56329 | 6.63560 | 21956 ft | 437 kts | 144° |
| 2026-05-07 04:24 | 45.53872 | 6.66142 | 22451 ft | 440 kts | 144° |
| 2026-05-07 04:24 | 45.51401 | 6.68735 | 22932 ft | 443 kts | 144° |
| 2026-05-07 04:24 | 45.48912 | 6.71342 | 23393 ft | 446 kts | 144° |
| 2026-05-07 04:24 | 45.46403 | 6.73963 | 23810 ft | 449 kts | 144° |
| 2026-05-07 04:25 | 45.43873 | 6.76588 | 24202 ft | 452 kts | 145° |
| 2026-05-07 04:25 | 45.41306 | 6.79195 | 24593 ft | 454 kts | 146° |
| 2026-05-07 04:25 | 45.38751 | 6.81749 | 24989 ft | 456 kts | 146° |
| 2026-05-07 04:25 | 45.36144 | 6.84336 | 25357 ft | 458 kts | 147° |
| 2026-05-07 04:26 | 45.33520 | 6.86937 | 25711 ft | 461 kts | 147° |
| 2026-05-07 04:26 | 45.30881 | 6.89552 | 26074 ft | 464 kts | 147° |
| 2026-05-07 04:26 | 45.28225 | 6.92189 | 26438 ft | 466 kts | 147° |
| 2026-05-07 04:26 | 45.25669 | 6.95049 | 26807 ft | 471 kts | 139° |
| 2026-05-07 04:27 | 45.23318 | 6.98297 | 27211 ft | 472 kts | 138° |
| 2026-05-07 04:27 | 45.20973 | 7.01558 | 27644 ft | 473 kts | 139° |
| 2026-05-07 04:27 | 45.18650 | 7.04768 | 28179 ft | 471 kts | 139° |
| 2026-05-07 04:27 | 45.16303 | 7.07992 | 28724 ft | 469 kts | 139° |
| 2026-05-07 04:28 | 45.13954 | 7.11203 | 29166 ft | 470 kts | 140° |
| 2026-05-07 04:28 | 45.11604 | 7.14434 | 29581 ft | 472 kts | 138° |
| 2026-05-07 04:28 | 45.09485 | 7.18002 | 30001 ft | 476 kts | 129° |
| 2026-05-07 04:28 | 45.07582 | 7.21845 | 30369 ft | 477 kts | 129° |
| 2026-05-07 04:29 | 45.05685 | 7.25688 | 30737 ft | 476 kts | 129° |
| 2026-05-07 04:29 | 45.03787 | 7.29529 | 31080 ft | 477 kts | 129° |
| 2026-05-07 04:29 | 45.01885 | 7.33362 | 31415 ft | 476 kts | 129° |
| 2026-05-07 04:29 | 45.00042 | 7.37176 | 31781 ft | 478 kts | 125° |
| 2026-05-07 04:30 | 44.98509 | 7.41360 | 32139 ft | 482 kts | 116° |
| 2026-05-07 04:30 | 44.97425 | 7.45862 | 32488 ft | 486 kts | 107° |
| 2026-05-07 04:30 | 44.96715 | 7.50535 | 32830 ft | 487 kts | 104° |
| 2026-05-07 04:30 | 44.96027 | 7.55213 | 33179 ft | 487 kts | 104° |
| 2026-05-07 04:31 | 44.95330 | 7.59885 | 33532 ft | 486 kts | 104° |
| 2026-05-07 04:31 | 44.94628 | 7.64561 | 33856 ft | 486 kts | 104° |
| 2026-05-07 04:31 | 44.93973 | 7.69181 | 34135 ft | 487 kts | 103° |
| 2026-05-07 04:31 | 44.93440 | 7.73906 | 34411 ft | 488 kts | 101° |
| 2026-05-07 04:32 | 44.93017 | 7.78660 | 34683 ft | 489 kts | 99° |
| 2026-05-07 04:32 | 44.92653 | 7.83427 | 34960 ft | 489 kts | 98° |
| 2026-05-07 04:32 | 44.92291 | 7.88199 | 35235 ft | 488 kts | 99° |
| 2026-05-07 04:32 | 44.91860 | 7.92946 | 35515 ft | 488 kts | 101° |
| 2026-05-07 04:33 | 44.91350 | 7.97668 | 35793 ft | 487 kts | 102° |
| 2026-05-07 04:33 | 44.90786 | 8.02375 | 36004 ft | 487 kts | 103° |
| 2026-05-07 04:33 | 44.90196 | 8.07079 | 36245 ft | 487 kts | 103° |
| 2026-05-07 04:33 | 44.89613 | 8.11727 | 36510 ft | 487 kts | 103° |
| 2026-05-07 04:34 | 44.89037 | 8.16432 | 36772 ft | 487 kts | 103° |
| 2026-05-07 04:34 | 44.88472 | 8.21141 | 36939 ft | 488 kts | 102° |
| 2026-05-07 04:34 | 44.87364 | 8.30615 | 36970 ft | 490 kts | 102° |
| 2026-05-07 04:35 | 44.86253 | 8.40094 | 36952 ft | 490 kts | 103° |
| 2026-05-07 04:35 | 44.85119 | 8.49565 | 36970 ft | 490 kts | 103° |
| 2026-05-07 04:36 | 44.83986 | 8.58957 | 36974 ft | 490 kts | 103° |
| 2026-05-07 04:36 | 44.82835 | 8.68409 | 36978 ft | 490 kts | 103° |
| 2026-05-07 04:37 | 44.81672 | 8.77871 | 36974 ft | 490 kts | 103° |
| 2026-05-07 04:37 | 44.80506 | 8.87326 | 36984 ft | 490 kts | 103° |
| 2026-05-07 04:38 | 44.79349 | 8.96730 | 36988 ft | 491 kts | 103° |
| 2026-05-07 04:38 | 44.78176 | 9.06185 | 36986 ft | 490 kts | 104° |
| 2026-05-07 04:39 | 44.76986 | 9.15644 | 36975 ft | 491 kts | 104° |
| 2026-05-07 04:39 | 44.75787 | 9.25104 | 36981 ft | 492 kts | 104° |
| 2026-05-07 04:40 | 44.74582 | 9.34510 | 36981 ft | 491 kts | 104° |
| 2026-05-07 04:40 | 44.73363 | 9.43970 | 36996 ft | 492 kts | 104° |
| 2026-05-07 04:41 | 44.72136 | 9.53448 | 36983 ft | 493 kts | 105° |
| 2026-05-07 04:41 | 44.70908 | 9.62923 | 36994 ft | 493 kts | 105° |
| 2026-05-07 04:42 | 44.69671 | 9.72409 | 36991 ft | 493 kts | 105° |
| 2026-05-07 04:42 | 44.68423 | 9.81881 | 36994 ft | 493 kts | 105° |
| 2026-05-07 04:43 | 44.67166 | 9.91289 | 36962 ft | 493 kts | 105° |
| 2026-05-07 04:43 | 44.65903 | 10.00751 | 36992 ft | 493 kts | 105° |
| 2026-05-07 04:44 | 44.64633 | 10.10213 | 36983 ft | 493 kts | 105° |
| 2026-05-07 04:44 | 44.63356 | 10.19609 | 36978 ft | 493 kts | 105° |
| 2026-05-07 04:45 | 44.62064 | 10.29053 | 36955 ft | 493 kts | 105° |
| 2026-05-07 04:45 | 44.60773 | 10.38497 | 36969 ft | 492 kts | 105° |
| 2026-05-07 04:46 | 44.59472 | 10.47923 | 36977 ft | 492 kts | 105° |
| 2026-05-07 04:46 | 44.58162 | 10.57343 | 36993 ft | 492 kts | 105° |
| 2026-05-07 04:47 | 44.56851 | 10.66679 | 36975 ft | 491 kts | 106° |
| 2026-05-07 04:47 | 44.55524 | 10.76068 | 36986 ft | 491 kts | 106° |
| 2026-05-07 04:48 | 44.54203 | 10.85459 | 36988 ft | 491 kts | 106° |
| 2026-05-07 04:48 | 44.52873 | 10.94833 | 36993 ft | 490 kts | 106° |
| 2026-05-07 04:49 | 44.51500 | 11.04125 | 36995 ft | 490 kts | 107° |
| 2026-05-07 04:49 | 44.49997 | 11.13415 | 36995 ft | 489 kts | 108° |
| 2026-05-07 04:50 | 44.48456 | 11.22693 | 36993 ft | 489 kts | 108° |
| 2026-05-07 04:50 | 44.46944 | 11.31973 | 36974 ft | 489 kts | 108° |
| 2026-05-07 04:51 | 44.45453 | 11.41196 | 36976 ft | 489 kts | 108° |
| 2026-05-07 04:51 | 44.43938 | 11.50478 | 36985 ft | 489 kts | 108° |
| 2026-05-07 04:52 | 44.42416 | 11.59752 | 36989 ft | 489 kts | 108° |
| 2026-05-07 04:52 | 44.40876 | 11.69017 | 36959 ft | 489 kts | 108° |
| 2026-05-07 04:53 | 44.39330 | 11.78285 | 36987 ft | 489 kts | 108° |
| 2026-05-07 04:53 | 44.37797 | 11.87486 | 36996 ft | 489 kts | 108° |
| 2026-05-07 04:54 | 44.36240 | 11.96749 | 36993 ft | 489 kts | 108° |
| 2026-05-07 04:54 | 44.34674 | 12.05999 | 36953 ft | 489 kts | 108° |
| 2026-05-07 04:55 | 44.33103 | 12.15238 | 36981 ft | 489 kts | 108° |
| 2026-05-07 04:55 | 44.31539 | 12.24418 | 36996 ft | 489 kts | 108° |
| 2026-05-07 04:56 | 44.29953 | 12.33644 | 36998 ft | 489 kts | 109° |
| 2026-05-07 04:56 | 44.28356 | 12.42873 | 36970 ft | 489 kts | 109° |
| 2026-05-07 04:57 | 44.26754 | 12.52082 | 36996 ft | 488 kts | 109° |
| 2026-05-07 04:57 | 44.25162 | 12.61228 | 37002 ft | 488 kts | 109° |
| 2026-05-07 04:58 | 44.23553 | 12.70413 | 37002 ft | 488 kts | 109° |
| 2026-05-07 04:58 | 44.21938 | 12.79593 | 36978 ft | 487 kts | 109° |
| 2026-05-07 04:59 | 44.20315 | 12.88738 | 36991 ft | 486 kts | 109° |
| 2026-05-07 04:59 | 44.18695 | 12.97826 | 36998 ft | 486 kts | 109° |
| 2026-05-07 05:00 | 44.17055 | 13.06954 | 36998 ft | 486 kts | 109° |
| 2026-05-07 05:00 | 44.15413 | 13.16080 | 36973 ft | 485 kts | 109° |
| 2026-05-07 05:01 | 44.13771 | 13.25187 | 36985 ft | 485 kts | 109° |
| 2026-05-07 05:01 | 44.12120 | 13.34292 | 36997 ft | 485 kts | 109° |
| 2026-05-07 05:02 | 44.10472 | 13.43321 | 36996 ft | 485 kts | 109° |
| 2026-05-07 05:02 | 44.08808 | 13.52411 | 36982 ft | 484 kts | 109° |
| 2026-05-07 05:03 | 44.07139 | 13.61475 | 37003 ft | 483 kts | 109° |
| 2026-05-07 05:03 | 44.05464 | 13.70516 | 37011 ft | 483 kts | 109° |
| 2026-05-07 05:04 | 44.03792 | 13.79489 | 37010 ft | 482 kts | 109° |
| 2026-05-07 05:04 | 44.02101 | 13.88505 | 37001 ft | 482 kts | 109° |
| 2026-05-07 05:05 | 44.00373 | 13.97508 | 37017 ft | 482 kts | 110° |
| 2026-05-07 05:05 | 43.98848 | 14.04932 | 37019 ft | 481 kts | 111° |
| 2026-05-07 05:06 | 43.96964 | 14.13848 | 37020 ft | 481 kts | 111° |
| 2026-05-07 05:06 | 43.94772 | 14.24191 | 37003 ft | 480 kts | 112° |
| 2026-05-07 05:07 | 43.92566 | 14.32882 | 37019 ft | 476 kts | 116° |
| 2026-05-07 05:07 | 43.90538 | 14.39976 | 37020 ft | 475 kts | 117° |
| 2026-05-07 05:08 | 43.88099 | 14.48488 | 37027 ft | 475 kts | 116° |
| 2026-05-07 05:08 | 43.85736 | 14.57046 | 37019 ft | 475 kts | 115° |
| 2026-05-07 05:09 | 43.83433 | 14.65557 | 37019 ft | 475 kts | 115° |
| 2026-05-07 05:09 | 43.81098 | 14.74107 | 37015 ft | 475 kts | 116° |
| 2026-05-07 05:10 | 43.78737 | 14.82644 | 37015 ft | 475 kts | 116° |
| 2026-05-07 05:10 | 43.76372 | 14.91175 | 37013 ft | 475 kts | 116° |
| 2026-05-07 05:11 | 43.74020 | 14.99637 | 37009 ft | 475 kts | 116° |
| 2026-05-07 05:11 | 43.71638 | 15.08143 | 37012 ft | 475 kts | 116° |
| 2026-05-07 05:12 | 43.69255 | 15.16652 | 37013 ft | 475 kts | 116° |
| 2026-05-07 05:12 | 43.66872 | 15.25149 | 37015 ft | 474 kts | 116° |
| 2026-05-07 05:13 | 43.64496 | 15.33584 | 37001 ft | 474 kts | 116° |
| 2026-05-07 05:13 | 43.62096 | 15.42050 | 37012 ft | 474 kts | 116° |
| 2026-05-07 05:14 | 43.59689 | 15.50508 | 37013 ft | 473 kts | 116° |
| 2026-05-07 05:14 | 43.57284 | 15.58953 | 37014 ft | 473 kts | 116° |
| 2026-05-07 05:15 | 43.54875 | 15.67395 | 36997 ft | 472 kts | 116° |
| 2026-05-07 05:15 | 43.52481 | 15.75747 | 37027 ft | 471 kts | 116° |
| 2026-05-07 05:16 | 43.50070 | 15.84128 | 37020 ft | 470 kts | 116° |
| 2026-05-07 05:16 | 43.48865 | 15.88314 | 36837 ft | 470 kts | 116° |
| 2026-05-07 05:16 | 43.47650 | 15.92509 | 36049 ft | 473 kts | 117° |
| 2026-05-07 05:17 | 43.46431 | 15.96708 | 35428 ft | 472 kts | 117° |
| 2026-05-07 05:17 | 43.45216 | 16.00896 | 34801 ft | 471 kts | 117° |
| 2026-05-07 05:17 | 43.44016 | 16.05024 | 34205 ft | 470 kts | 117° |
| 2026-05-07 05:17 | 43.42804 | 16.09190 | 33554 ft | 469 kts | 117° |
| 2026-05-07 05:18 | 43.41596 | 16.13348 | 32879 ft | 468 kts | 117° |
| 2026-05-07 05:18 | 43.40389 | 16.17497 | 32222 ft | 467 kts | 117° |
| 2026-05-07 05:18 | 43.39180 | 16.21635 | 31583 ft | 466 kts | 117° |
| 2026-05-07 05:18 | 43.37968 | 16.25776 | 30827 ft | 468 kts | 117° |
| 2026-05-07 05:19 | 43.36742 | 16.29945 | 30021 ft | 472 kts | 117° |
| 2026-05-07 05:19 | 43.35513 | 16.34123 | 29316 ft | 471 kts | 117° |
| 2026-05-07 05:19 | 43.34290 | 16.38281 | 28653 ft | 468 kts | 117° |
| 2026-05-07 05:19 | 43.33078 | 16.42404 | 28006 ft | 464 kts | 117° |
| 2026-05-07 05:20 | 43.31887 | 16.46445 | 27373 ft | 460 kts | 117° |
| 2026-05-07 05:20 | 43.30688 | 16.50500 | 26767 ft | 457 kts | 116° |
| 2026-05-07 05:20 | 43.29497 | 16.54520 | 26179 ft | 453 kts | 116° |
| 2026-05-07 05:20 | 43.28311 | 16.58508 | 25617 ft | 450 kts | 116° |
| 2026-05-07 05:21 | 43.27130 | 16.62466 | 25067 ft | 447 kts | 116° |
| 2026-05-07 05:21 | 43.24790 | 16.70314 | 23914 ft | 441 kts | 116° |
| 2026-05-07 05:21 | 43.23637 | 16.74186 | 23366 ft | 437 kts | 115° |
| 2026-05-07 05:22 | 43.22511 | 16.77963 | 22894 ft | 430 kts | 115° |
| 2026-05-07 05:22 | 43.21384 | 16.81736 | 22426 ft | 424 kts | 115° |
| 2026-05-07 05:22 | 43.20271 | 16.85454 | 21946 ft | 420 kts | 115° |
| 2026-05-07 05:22 | 43.19166 | 16.89132 | 21474 ft | 416 kts | 115° |
| 2026-05-07 05:23 | 43.18069 | 16.92778 | 21003 ft | 413 kts | 115° |
| 2026-05-07 05:23 | 43.16973 | 16.96420 | 20509 ft | 413 kts | 115° |
| 2026-05-07 05:23 | 43.15879 | 17.00046 | 20001 ft | 411 kts | 115° |
| 2026-05-07 05:23 | 43.14786 | 17.03656 | 19503 ft | 410 kts | 115° |
| 2026-05-07 05:24 | 43.13649 | 17.07204 | 19050 ft | 402 kts | 121° |
| 2026-05-07 05:24 | 43.12210 | 17.10363 | 18533 ft | 391 kts | 127° |
| 2026-05-07 05:24 | 43.10714 | 17.13398 | 18018 ft | 378 kts | 127° |
| 2026-05-07 05:24 | 43.09269 | 17.16340 | 17546 ft | 370 kts | 127° |
| 2026-05-07 05:25 | 43.07844 | 17.19240 | 17098 ft | 365 kts | 127° |
| 2026-05-07 05:25 | 43.06434 | 17.22108 | 16628 ft | 362 kts | 127° |
| 2026-05-07 05:25 | 43.05033 | 17.24947 | 16194 ft | 357 kts | 128° |
| 2026-05-07 05:25 | 43.03622 | 17.27703 | 15784 ft | 352 kts | 129° |
| 2026-05-07 05:26 | 43.02194 | 17.30397 | 15324 ft | 348 kts | 129° |
| 2026-05-07 05:26 | 43.00783 | 17.33016 | 14875 ft | 346 kts | 129° |
| 2026-05-07 05:26 | 42.99360 | 17.35647 | 14430 ft | 343 kts | 130° |
| 2026-05-07 05:26 | 42.97958 | 17.38249 | 14054 ft | 339 kts | 130° |
| 2026-05-07 05:27 | 42.96586 | 17.40803 | 13865 ft | 327 kts | 130° |
| 2026-05-07 05:27 | 42.95276 | 17.43253 | 13614 ft | 313 kts | 130° |
| 2026-05-07 05:27 | 42.94005 | 17.45633 | 13190 ft | 307 kts | 130° |
| 2026-05-07 05:27 | 42.92754 | 17.47974 | 12721 ft | 304 kts | 130° |
| 2026-05-07 05:28 | 42.91518 | 17.50288 | 12218 ft | 300 kts | 130° |
| 2026-05-07 05:28 | 42.90294 | 17.52575 | 11659 ft | 296 kts | 131° |
| 2026-05-07 05:28 | 42.89105 | 17.54793 | 11138 ft | 293 kts | 131° |
| 2026-05-07 05:28 | 42.87907 | 17.57026 | 10668 ft | 290 kts | 131° |
| 2026-05-07 05:29 | 42.86721 | 17.59233 | 10402 ft | 287 kts | 131° |
| 2026-05-07 05:29 | 42.85539 | 17.61428 | 10296 ft | 287 kts | 131° |
| 2026-05-07 05:29 | 42.84372 | 17.63600 | 10159 ft | 280 kts | 131° |
| 2026-05-07 05:29 | 42.83232 | 17.65726 | 10042 ft | 276 kts | 132° |
| 2026-05-07 05:30 | 42.82098 | 17.67833 | 9737 ft | 278 kts | 132° |
| 2026-05-07 05:30 | 42.80958 | 17.69950 | 9179 ft | 275 kts | 132° |
| 2026-05-07 05:30 | 42.79838 | 17.72033 | 8700 ft | 270 kts | 131° |
| 2026-05-07 05:30 | 42.78749 | 17.74052 | 8231 ft | 267 kts | 131° |
| 2026-05-07 05:31 | 42.77649 | 17.76084 | 7765 ft | 266 kts | 131° |
| 2026-05-07 05:31 | 42.76550 | 17.78107 | 7314 ft | 264 kts | 131° |
| 2026-05-07 05:31 | 42.75474 | 17.80094 | 6854 ft | 258 kts | 131° |
| 2026-05-07 05:31 | 42.74427 | 17.82033 | 6404 ft | 250 kts | 131° |
| 2026-05-07 05:32 | 42.73372 | 17.83849 | 5961 ft | 239 kts | 136° |
| 2026-05-07 05:32 | 42.72379 | 17.85639 | 5542 ft | 237 kts | 126° |
| 2026-05-07 05:32 | 42.71577 | 17.87569 | 5135 ft | 232 kts | 122° |
| 2026-05-07 05:32 | 42.70862 | 17.89418 | 4926 ft | 214 kts | 122° |
| 2026-05-07 05:33 | 42.70203 | 17.91118 | 4881 ft | 195 kts | 122° |
| 2026-05-07 05:33 | 42.69575 | 17.92718 | 4814 ft | 190 kts | 122° |
| 2026-05-07 05:33 | 42.68957 | 17.94292 | 4724 ft | 188 kts | 122° |
| 2026-05-07 05:33 | 42.68340 | 17.95864 | 4648 ft | 188 kts | 122° |
| 2026-05-07 05:34 | 42.67725 | 17.97433 | 4562 ft | 188 kts | 122° |
| 2026-05-07 05:34 | 42.67114 | 17.98990 | 4480 ft | 186 kts | 122° |
| 2026-05-07 05:34 | 42.66506 | 18.00538 | 4394 ft | 186 kts | 122° |
| 2026-05-07 05:34 | 42.65908 | 18.02061 | 4217 ft | 184 kts | 122° |
| 2026-05-07 05:35 | 42.65309 | 18.03585 | 3993 ft | 180 kts | 122° |
| 2026-05-07 05:35 | 42.64727 | 18.05064 | 3759 ft | 176 kts | 122° |
| 2026-05-07 05:35 | 42.64157 | 18.06513 | 3533 ft | 173 kts | 122° |
| 2026-05-07 05:35 | 42.63593 | 18.07946 | 3307 ft | 171 kts | 122° |
| 2026-05-07 05:36 | 42.63040 | 18.09350 | 3088 ft | 165 kts | 122° |
| 2026-05-07 05:36 | 42.62504 | 18.10711 | 2878 ft | 162 kts | 121° |
| 2026-05-07 05:36 | 42.61981 | 18.12038 | 2662 ft | 156 kts | 121° |
| 2026-05-07 05:36 | 42.61481 | 18.13305 | 2471 ft | 147 kts | 122° |
| 2026-05-07 05:37 | 42.61016 | 18.14485 | 2267 ft | 138 kts | 121° |
| 2026-05-07 05:37 | 42.60572 | 18.15607 | 2082 ft | 136 kts | 121° |
| 2026-05-07 05:37 | 42.60127 | 18.16735 | 1902 ft | 135 kts | 121° |
| 2026-05-07 05:37 | 42.59681 | 18.17862 | 1719 ft | 135 kts | 122° |
| 2026-05-07 05:38 | 42.59238 | 18.18981 | 1532 ft | 134 kts | 120° |
| 2026-05-07 05:38 | 42.58794 | 18.20101 | 1373 ft | 133 kts | 120° |
| 2026-05-07 05:38 | 42.58349 | 18.21223 | 1157 ft | 135 kts | 118° |
| 2026-05-07 05:38 | 42.57910 | 18.22338 | 971 ft | 134 kts | 117° |
| 2026-05-07 05:39 | 42.57483 | 18.23428 | 793 ft | 132 kts | 117° |
| 2026-05-07 05:39 | 42.57041 | 18.24546 | 634 ft | 135 kts | 117° |
| 2026-05-07 05:39 | 42.56608 | 18.25645 | 538 ft | 123 kts | 118° |
| 2026-05-07 05:39 | 42.56268 | 18.26496 | 533 ft | 79 kts | 118° |
| 2026-05-07 05:40 | 42.56083 | 18.26964 | 535 ft | 43 kts | 118° |
| 2026-05-07 05:40 | 42.55959 | 18.27273 | 533 ft | 18 kts | 121° |
| 2026-05-07 05:40 | 42.55878 | 18.27333 | 532 ft | 13 kts | 170° |
| 2026-05-07 05:40 | 42.55796 | 18.27341 | 534 ft | 9 kts | 188° |
| 2026-05-07 05:41 | 42.55772 | 18.27277 | 534 ft | 9 kts | 279° |
| 2026-05-07 05:41 | 42.55799 | 18.27191 | 534 ft | 11 kts | 300° |
| 2026-05-07 05:41 | 42.55841 | 18.27094 | 534 ft | 13 kts | 299° |
| 2026-05-07 05:41 | 42.55886 | 18.26980 | 534 ft | 15 kts | 297° |
| 2026-05-07 05:42 | 42.55935 | 18.26851 | 534 ft | 16 kts | 297° |
| 2026-05-07 05:42 | 42.55992 | 18.26709 | 534 ft | 18 kts | 298° |
| 2026-05-07 05:42 | 42.56055 | 18.26553 | 534 ft | 20 kts | 298° |
| 2026-05-07 05:42 | 42.56109 | 18.26415 | 534 ft | 9 kts | 298° |
| 2026-05-07 05:43 | 42.56142 | 18.26333 | 534 ft | 11 kts | 298° |
| 2026-05-07 05:43 | 42.56170 | 18.26248 | 534 ft | 6 kts | 269° |
| 2026-05-07 05:43 | 42.56150 | 18.26216 | 534 ft | 3 kts | 214° |
| 2026-05-07 05:43 | 42.56134 | 18.26205 | 534 ft | 2 kts | 207° |
| 2026-05-07 05:44 | 42.56128 | 18.26201 | 534 ft | 0 kts | 208° |